EDDT/TXL METAR and TAF weather

Enter ICAO airport designator
Station Type Date Time Source
EDDT METAR 2018/04/26 14:50 UTC NOAA

EDDT 261450Z 28014G26KT 260V330 9999 -SHRA SCT033CB SCT060 12/05 Q1013 TEMPO 27020G30KT TSRA BKN030CB


Station Type Date Time Source
EDDT Decoded METAR 2018/04/26 14:50 UTC NOAA

Berlin-Tegel, Germany (EDDT) 52-34N 013-19E 37M
Apr 26, 2018 - 10:50 AM EDT / 2018.04.26 1450 UTC
Wind: from the W (280 degrees) at 16 MPH (14 KT) gusting to 30 MPH (26 KT) (direction variable):0
Visibility: greater than 7 mile(s):0
Sky conditions: partly cloudy
Weather: light rain showers; Cumulonimbus clouds observed
Temperature: 53 F (12 C)
Dew Point: 41 F (5 C)
Relative Humidity: 62%
Pressure (altimeter): 29.91 in. Hg (1013 hPa)
ob: EDDT 261450Z 28014G26KT 260V330 9999 -SHRA SCT033CB SCT060 12/05 Q1013 TEMPO 27020G30KT TSRA BKN030CB
cycle: 15

Station Type Date Time Source
EDDT TAF 2018/04/26 12:27 UTC NOAA

TAF EDDT 261100Z 2612/2712 27015G25KT 9999 BKN040
TEMPO 2612/2616 SHRA BKN020CB PROB30
TEMPO 2612/2615 27020G40KT TSRA
BECMG 2617/2620 26008KT
BECMG 2620/2624 20006KT


Example: see airport list